Flight Track Log - Related Links

Times and Time Zones

All times are in EDT time to prevent confusion due to time zone crossing. See the N42J flight status page for this flight to view local times or setup timezone preferences in your user account.

Time Position Orientation Groundspeed Altitude Reporting Facility
EDT Latitude Longitude Course Direction KTS MPH feet Rate Location/Type
Thu 12:39:02 PM 40.0980 -76.2670 245° Southwest 154 177 4,000  Level FlightAware ADS-B
Thu 12:39:37 PM 40.0880 -76.2950 245° Southwest 142 163 5,400 2,291 Climbing FlightAware ADS-B
Thu 12:39:57 PM 40.0830 -76.3080 243° Southwest 140 161 6,100 2,280 Climbing FlightAware ADS-B
Thu 12:40:27 PM 40.0740 -76.3320 244° Southwest 142 163 7,300 2,000 Climbing FlightAware ADS-B
Thu 12:40:57 PM 40.0660 -76.3560 246° West 155 178 8,100 1,676 Climbing FlightAware ADS-B
Thu 12:41:35 PM 40.0540 -76.3940 248° West 178 205 9,200 1,663 Climbing FlightAware ADS-B
Thu 12:42:20 PM 40.0430 -76.4320 249° West 170 196 10,400 1,677 Climbing FlightAware ADS-B
Thu 12:43:08 PM 40.0310 -76.4820 253° West 174 200 11,800 1,948 Climbing FlightAware ADS-B
Thu 12:43:37 PM 40.0208 -76.5145 248° West 168 193 12,900 1,810 Climbing FlightAware ADS-B
Thu 12:44:11 PM 40.0075 -76.5443 240° Southwest 165 190 13,700 1,180 Climbing FlightAware ADS-B
Thu 12:44:38 PM 39.9956 -76.5684 237° Southwest 185 213 14,100 421 Climbing FlightAware ADS-B
Thu 12:45:08 PM 39.9798 -76.5980 235° Southwest 208 239 14,100  Level FlightAware ADS-B
Thu 12:46:11 PM 39.9472 -76.6669 238° Southwest 217 250 14,100  Level FlightAware ADS-B
Thu 12:46:47 PM 39.9287 -76.7067 239° Southwest 213 245 14,100  Level FlightAware ADS-B
Thu 12:47:41 PM 39.9020 -76.7610 237° Southwest 206 237 14,100  Level FlightAware ADS-B
Thu 12:48:18 PM 39.8824 -76.8048 240° Southwest 211 243 14,100  Level FlightAware ADS-B
Thu 12:48:51 PM 39.8654 -76.8410 239° Southwest 211 243 14,100  Level FlightAware ADS-B
Thu 12:49:22 PM 39.8497 -76.8747 239° Southwest 212 244 14,100  Level FlightAware ADS-B
Thu 12:49:53 PM 39.8341 -76.9081 239° Southwest 211 243 14,100  Level FlightAware ADS-B
Thu 12:50:23 PM 39.8185 -76.9416 239° Southwest 213 245 14,100  Level FlightAware ADS-B
Thu 12:51:02 PM 39.8010 -76.9800 239° Southwest 215 247 14,100  Level FlightAware ADS-B
Thu 12:51:27 PM 39.7857 -77.0114 238° Southwest 216 249 14,100  Level FlightAware ADS-B
Thu 12:52:26 PM 39.7570 -77.0720 238° Southwest 217 250 14,100  Level FlightAware ADS-B
Thu 12:53:05 PM 39.7390 -77.1120 240° Southwest 219 252 14,100  Level FlightAware ADS-B
Thu 12:54:00 PM 39.7090 -77.1740 238° Southwest 219 252 14,100 54 Level FlightAware ADS-B
Thu 12:54:57 PM 39.6770 -77.2410 238° Southwest 219 252 14,200  Climbing FlightAware ADS-B
Thu 12:56:10 PM 39.6370 -77.3250 238° Southwest 218 251 14,100 -52 Descending FlightAware ADS-B
Thu 12:56:52 PM 39.6160 -77.3710 239° Southwest 218 251 14,100 64 Level FlightAware ADS-B
Thu 12:57:44 PM 39.5870 -77.4300 237° Southwest 218 251 14,200 62 Climbing FlightAware ADS-B
Thu 12:58:29 PM 39.5620 -77.4820 238° Southwest 218 251 14,200  Level FlightAware ADS-B
Thu 12:59:05 PM 39.5490 -77.5090 238° Southwest 220 253 14,200  Level FlightAware ADS-B
Thu 12:59:54 PM 39.5340 -77.5410 239° Southwest 221 254 14,200  Level FlightAware ADS-B
Thu 01:03:25 PM 39.4050 -77.8080 238° Southwest 220 253 14,200  Level FlightAware ADS-B
Thu 01:04:08 PM 39.3830 -77.8520 237° Southwest 220 253 14,200  Level FlightAware ADS-B
Thu 01:05:59 PM 39.3230 -77.9750 238° Southwest 224 258 14,200  Level FlightAware ADS-B
Thu 01:07:25 PM 39.2720 -78.0780 237° Southwest 231 266 14,200  Level FlightAware ADS-B
Thu 01:08:05 PM 39.2470 -78.1320 239° Southwest 233 268 14,200  Level FlightAware ADS-B
Thu 01:08:45 PM 39.2250 -78.1790 239° Southwest 234 269 14,200  Level FlightAware ADS-B
Thu 01:09:30 PM 39.2010 -78.2320 240° Southwest 236 272 14,200  Level FlightAware ADS-B
Thu 01:10:40 PM 39.1590 -78.3130 236° Southwest 235 270 14,200  Level FlightAware ADS-B
Thu 01:11:55 PM 39.1100 -78.3890 230° Southwest 234 269 14,200 -54 Level FlightAware ADS-B
Thu 01:12:32 PM 39.0760 -78.4210 216° Southwest 225 259 14,100  Descending FlightAware ADS-B
Thu 01:13:27 PM 39.0300 -78.4570 211° Southwest 209 241 14,200 -316 Climbing FlightAware ADS-B
Thu 01:14:07 PM 38.9950 -78.4840 211° Southwest 220 253 13,600 -988 Descending FlightAware ADS-B
Thu 01:14:52 PM 38.9540 -78.5150 210° Southwest 231 266 12,800 -1,129 Descending FlightAware ADS-B
Thu 01:15:32 PM 38.9180 -78.5430 211° Southwest 233 268 12,000 -1,256 Descending FlightAware ADS-B
Thu 01:16:18 PM 38.8750 -78.5760 211° Southwest 235 270 11,000 -1,341 Descending FlightAware ADS-B
Thu 01:16:57 PM 38.8380 -78.6040 211° Southwest 236 272 10,100 -1,391 Descending FlightAware ADS-B
Thu 01:17:27 PM 38.8100 -78.6250 210° Southwest 235 270 9,400 -724 Descending FlightAware ADS-B
Thu 01:17:55 PM 38.7880 -78.6420 211° Southwest 235 270 9,400  Level FlightAware ADS-B
Thu 01:18:19 PM 38.7690 -78.6560 210° Southwest 235 270 9,400  Level FlightAware ADS-B
Thu 01:18:55 PM 38.7400 -78.6780 211° Southwest 235 270 9,400  Level FlightAware ADS-B
Thu 01:19:18 PM 38.7210 -78.6910 208° Southwest 235 270 9,400 -3,053 Level FlightAware ADS-B
Thu 01:19:52 PM 38.6828 -78.7300 208° Southwest 236 272 6,500 -2,242 Descending Washington Center
Thu 01:20:49 PM 38.6417 -78.7839 226° Southwest 231 266 6,000 -203 Descending Washington Center
Thu 01:21:50 PM 38.6053 -78.8222 219° Southwest 225 259 6,100 98 Climbing Washington Center
Thu 01:22:51 PM 38.5561 -78.8678 216° Southwest 213 245 6,200 -50 Climbing Washington Center
Thu 01:23:49 PM 38.4989 -78.8944 200° South 213 245 6,000 -207 Descending Washington Center

Login

Don't have an account? Register now (free) for customized features, flight alerts, and more!